createdAt,value
2018-03-22T00:00:30.723Z,0
2018-03-22T00:01:11.367Z,0
2018-03-22T00:01:52.041Z,0
2018-03-22T00:02:32.624Z,0
2018-03-22T00:03:13.177Z,0
2018-03-22T00:03:53.764Z,0
2018-03-22T00:04:34.733Z,0
2018-03-22T00:05:14.919Z,0
2018-03-22T00:05:55.604Z,0
2018-03-22T00:06:36.076Z,0
2018-03-22T00:07:16.627Z,0
2018-03-22T00:07:57.187Z,0
2018-03-22T00:08:37.792Z,0
2018-03-22T00:09:18.491Z,0
2018-03-22T00:09:59.232Z,0
2018-03-22T00:10:39.745Z,0
2018-03-22T00:11:20.291Z,0
2018-03-22T00:12:00.847Z,0
2018-03-22T00:12:41.411Z,0
2018-03-22T00:13:22.030Z,0
2018-03-22T00:14:02.860Z,0
2018-03-22T00:14:43.414Z,0
2018-03-22T00:15:23.988Z,0
2018-03-22T00:16:04.534Z,0
2018-03-22T00:16:45.138Z,0
2018-03-22T00:17:25.697Z,0
2018-03-22T00:18:06.256Z,0
2018-03-22T00:18:46.841Z,0
2018-03-22T00:19:27.415Z,0
2018-03-22T00:20:07.972Z,0
2018-03-22T00:20:48.523Z,0
2018-03-22T00:21:29.091Z,0
2018-03-22T00:22:09.643Z,0
2018-03-22T00:22:50.264Z,0
2018-03-22T00:23:30.826Z,0
2018-03-22T00:24:11.384Z,0
2018-03-22T00:24:51.935Z,0
2018-03-22T00:25:32.518Z,0
2018-03-22T00:26:13.066Z,0
2018-03-22T00:26:53.640Z,0
2018-03-22T00:27:34.200Z,0
2018-03-22T00:28:14.754Z,0
2018-03-22T00:28:55.310Z,0
2018-03-22T00:29:35.867Z,0
2018-03-22T00:30:17.445Z,0
2018-03-22T00:30:58.023Z,0
2018-03-22T00:31:38.576Z,0
2018-03-22T00:32:19.171Z,0
2018-03-22T00:32:59.750Z,0
2018-03-22T00:33:40.319Z,0
2018-03-22T00:34:20.864Z,0
2018-03-22T00:35:01.419Z,0
2018-03-22T00:35:41.975Z,0
2018-03-22T00:36:22.580Z,0
2018-03-22T00:37:03.273Z,0
2018-03-22T00:37:44.183Z,0
2018-03-22T00:38:24.804Z,0
2018-03-22T00:39:05.338Z,0
2018-03-22T00:39:46.062Z,0
2018-03-22T00:40:26.618Z,0
2018-03-22T00:41:07.166Z,0
2018-03-22T00:41:47.721Z,0
2018-03-22T00:42:28.277Z,0
2018-03-22T00:43:08.830Z,0
2018-03-22T00:43:49.392Z,0
2018-03-22T00:44:29.953Z,0
2018-03-22T00:45:10.648Z,0
2018-03-22T00:45:51.571Z,0
2018-03-22T00:46:32.123Z,0
2018-03-22T00:47:12.564Z,0
2018-03-22T00:47:53.118Z,0
2018-03-22T00:48:33.683Z,0
2018-03-22T00:49:14.234Z,0
2018-03-22T00:49:54.906Z,0
2018-03-22T00:50:35.464Z,0
2018-03-22T00:51:16.032Z,0
2018-03-22T00:51:56.582Z,0
2018-03-22T00:52:37.146Z,0
2018-03-22T00:53:17.694Z,0
2018-03-22T00:53:58.246Z,0
2018-03-22T00:54:38.803Z,0
2018-03-22T00:55:19.757Z,0
2018-03-22T00:56:00.309Z,0
2018-03-22T00:56:40.867Z,0
2018-03-22T00:57:21.427Z,0
2018-03-22T00:58:01.972Z,0
2018-03-22T00:58:42.580Z,0
2018-03-22T00:59:23.126Z,0
2018-03-22T01:00:03.685Z,0
2018-03-22T01:00:44.239Z,0
2018-03-22T01:01:24.858Z,0
2018-03-22T01:02:05.401Z,0
2018-03-22T01:02:45.968Z,0
2018-03-22T01:03:26.635Z,0
2018-03-22T01:04:07.450Z,0
2018-03-22T01:04:47.891Z,0
2018-03-22T01:05:28.641Z,0
2018-03-22T01:06:09.201Z,0
2018-03-22T01:06:49.758Z,0
2018-03-22T01:07:30.319Z,0
2018-03-22T01:08:10.871Z,0
2018-03-22T01:08:51.432Z,0
2018-03-22T01:09:32.020Z,0
2018-03-22T01:10:12.591Z,0
2018-03-22T01:10:53.156Z,0
2018-03-22T01:11:33.719Z,0
2018-03-22T01:12:14.280Z,0
2018-03-22T01:12:54.852Z,0
2018-03-22T01:13:35.411Z,0
2018-03-22T01:14:15.970Z,0
2018-03-22T01:14:56.512Z,0
2018-03-22T01:15:37.223Z,0
2018-03-22T01:16:17.767Z,0
2018-03-22T01:16:58.321Z,0
2018-03-22T01:17:38.875Z,0
2018-03-22T01:18:19.635Z,0
2018-03-22T01:19:00.611Z,0
2018-03-22T01:19:41.157Z,0
2018-03-22T01:20:21.712Z,0
2018-03-22T01:21:02.292Z,0
2018-03-22T01:21:42.921Z,0
2018-03-22T01:22:23.697Z,0
2018-03-22T01:23:04.245Z,0
2018-03-22T01:23:44.822Z,0
2018-03-22T01:24:25.390Z,0
2018-03-22T01:25:05.971Z,0
2018-03-22T01:25:46.499Z,0
2018-03-22T01:26:27.067Z,0
2018-03-22T01:27:07.631Z,0
2018-03-22T01:27:48.195Z,0
2018-03-22T01:28:28.782Z,0
2018-03-22T01:29:09.360Z,0
2018-03-22T01:29:49.917Z,0
2018-03-22T01:30:30.487Z,0
2018-03-22T01:31:11.047Z,0
2018-03-22T01:31:51.718Z,0
2018-03-22T01:32:32.452Z,0
2018-03-22T01:33:13.182Z,0
2018-03-22T01:33:53.859Z,0
2018-03-22T01:34:34.416Z,0
2018-03-22T01:35:15.032Z,0
2018-03-22T01:35:55.852Z,0
2018-03-22T01:36:36.407Z,0
2018-03-22T01:37:16.965Z,0
2018-03-22T01:37:57.633Z,0
2018-03-22T01:38:38.691Z,0
2018-03-22T01:39:19.430Z,0
2018-03-22T01:39:59.985Z,0
2018-03-22T01:40:40.525Z,0
2018-03-22T01:41:21.107Z,0
2018-03-22T01:42:01.729Z,0
2018-03-22T01:42:42.289Z,0
2018-03-22T01:43:22.855Z,0
2018-03-22T01:44:03.409Z,0
2018-03-22T01:44:43.971Z,0
2018-03-22T01:45:24.957Z,0
2018-03-22T01:46:05.563Z,0
2018-03-22T01:46:46.127Z,0
2018-03-22T01:47:26.683Z,0
2018-03-22T01:48:07.228Z,0
2018-03-22T01:48:47.790Z,0
2018-03-22T01:49:28.342Z,0
2018-03-22T01:50:09.079Z,0
2018-03-22T01:50:49.645Z,0
2018-03-22T01:51:30.198Z,0
2018-03-22T01:52:10.733Z,0
2018-03-22T01:52:51.363Z,0
2018-03-22T01:53:32.043Z,0
2018-03-22T01:54:12.606Z,0
2018-03-22T01:54:53.180Z,0
2018-03-22T01:55:33.984Z,0
2018-03-22T01:56:14.558Z,0
2018-03-22T01:56:55.113Z,0
2018-03-22T01:57:35.726Z,0
2018-03-22T01:58:16.287Z,0
2018-03-22T01:58:56.845Z,0
2018-03-22T01:59:37.409Z,0
2018-03-22T02:00:17.965Z,0
2018-03-22T02:00:58.534Z,0
2018-03-22T02:01:39.084Z,0
2018-03-22T02:02:19.640Z,0
2018-03-22T02:03:00.199Z,0
2018-03-22T02:03:40.744Z,0
2018-03-22T02:04:21.318Z,0
2018-03-22T02:05:01.853Z,0
2018-03-22T02:05:42.391Z,0
2018-03-22T02:06:22.959Z,0
2018-03-22T02:07:03.518Z,0
2018-03-22T02:07:44.080Z,0
2018-03-22T02:08:24.634Z,0
2018-03-22T02:09:05.202Z,0
2018-03-22T02:09:45.755Z,0
2018-03-22T02:10:26.306Z,0
2018-03-22T02:11:06.896Z,0
2018-03-22T02:11:47.468Z,0
2018-03-22T02:12:28.021Z,0
2018-03-22T02:13:08.574Z,0
2018-03-22T02:13:49.193Z,0
2018-03-22T02:14:29.739Z,0
2018-03-22T02:15:10.287Z,0
2018-03-22T02:15:50.865Z,0
2018-03-22T02:16:31.422Z,0
2018-03-22T02:17:11.978Z,0
2018-03-22T02:17:52.527Z,0
2018-03-22T02:18:33.086Z,0
2018-03-22T02:19:13.637Z,0
2018-03-22T02:19:54.194Z,0
2018-03-22T02:20:34.771Z,0
2018-03-22T02:21:15.324Z,0
2018-03-22T02:21:55.884Z,0
2018-03-22T02:22:36.447Z,0
2018-03-22T02:23:17.011Z,0
2018-03-22T02:23:57.571Z,0
2018-03-22T02:24:38.122Z,0
2018-03-22T02:25:18.668Z,0
2018-03-22T02:25:59.221Z,0
2018-03-22T02:26:39.779Z,0
2018-03-22T02:27:20.339Z,0
2018-03-22T02:28:00.902Z,0
2018-03-22T02:28:41.444Z,0
2018-03-22T02:29:21.990Z,0
2018-03-22T02:30:02.539Z,0
2018-03-22T02:30:43.103Z,0
2018-03-22T02:31:23.664Z,0
2018-03-22T02:32:04.226Z,0
2018-03-22T02:32:44.785Z,0
2018-03-22T02:33:25.348Z,0
2018-03-22T02:34:05.897Z,0
2018-03-22T02:34:46.455Z,0
2018-03-22T02:35:27.036Z,0
2018-03-22T02:36:07.619Z,0
2018-03-22T02:36:48.185Z,0
2018-03-22T02:37:28.744Z,0
2018-03-22T02:38:09.305Z,0
2018-03-22T02:38:49.875Z,0
2018-03-22T02:39:30.428Z,0
2018-03-22T02:40:10.977Z,0
2018-03-22T02:40:51.535Z,0
2018-03-22T02:41:32.085Z,0
2018-03-22T02:42:12.648Z,0
2018-03-22T02:42:53.227Z,0
2018-03-22T02:43:33.765Z,0
2018-03-22T02:44:14.328Z,0
2018-03-22T02:44:54.895Z,0
2018-03-22T02:45:35.458Z,0
2018-03-22T02:46:16.011Z,0
2018-03-22T02:46:56.604Z,0
2018-03-22T02:47:37.117Z,0
2018-03-22T02:48:17.686Z,0
2018-03-22T02:48:58.244Z,0
2018-03-22T02:49:38.796Z,0
2018-03-22T02:50:19.357Z,0
2018-03-22T02:50:59.929Z,0
2018-03-22T02:51:40.475Z,0
2018-03-22T02:52:21.019Z,0
2018-03-22T02:53:01.567Z,0
2018-03-22T02:53:42.118Z,0
2018-03-22T02:54:22.657Z,0
2018-03-22T02:55:03.215Z,0
2018-03-22T02:55:43.763Z,0
2018-03-22T02:56:24.313Z,0
2018-03-22T02:57:04.861Z,0
2018-03-22T02:57:45.419Z,0
2018-03-22T02:58:25.982Z,0
2018-03-22T02:59:06.531Z,0
2018-03-22T02:59:47.083Z,0
2018-03-22T03:00:27.632Z,0
2018-03-22T03:01:08.199Z,0
2018-03-22T03:01:48.762Z,0
2018-03-22T03:02:29.312Z,0
2018-03-22T03:03:09.866Z,0
2018-03-22T03:03:50.431Z,0
2018-03-22T03:04:31.005Z,0
2018-03-22T03:05:11.565Z,0
2018-03-22T03:05:52.120Z,0
2018-03-22T03:06:32.682Z,0
2018-03-22T03:07:13.230Z,0
2018-03-22T03:07:53.808Z,0
2018-03-22T03:08:34.375Z,0
2018-03-22T03:09:14.942Z,0
2018-03-22T03:09:55.664Z,0
2018-03-22T03:10:36.090Z,0
2018-03-22T03:11:16.650Z,0
2018-03-22T03:11:57.198Z,0
2018-03-22T03:12:37.750Z,0
2018-03-22T03:13:18.312Z,0
2018-03-22T03:13:58.883Z,0
2018-03-22T03:14:39.433Z,0
2018-03-22T03:15:20.048Z,0
2018-03-22T03:16:00.580Z,0
2018-03-22T03:16:41.156Z,0
2018-03-22T03:17:21.713Z,0
2018-03-22T03:18:02.264Z,0
2018-03-22T03:18:42.813Z,0
2018-03-22T03:19:23.372Z,0
2018-03-22T03:20:03.917Z,0
2018-03-22T03:20:44.484Z,0
2018-03-22T03:21:25.056Z,0
2018-03-22T03:22:05.627Z,0
2018-03-22T03:22:46.194Z,0
2018-03-22T03:23:26.760Z,0
2018-03-22T03:24:07.317Z,0
2018-03-22T03:24:47.861Z,0
2018-03-22T03:25:28.416Z,0
2018-03-22T03:26:08.990Z,0
2018-03-22T03:26:49.542Z,0
2018-03-22T03:27:30.114Z,0
2018-03-22T03:28:10.683Z,0
2018-03-22T03:28:51.249Z,0
2018-03-22T03:29:31.810Z,0
2018-03-22T03:30:12.384Z,0
2018-03-22T03:30:52.939Z,0
2018-03-22T03:31:33.569Z,0
2018-03-22T03:32:14.117Z,0
2018-03-22T03:32:54.668Z,0
2018-03-22T03:33:35.253Z,0
2018-03-22T03:34:15.816Z,0
2018-03-22T03:34:56.546Z,0
2018-03-22T03:35:37.055Z,0
2018-03-22T03:36:17.612Z,0
2018-03-22T03:36:58.175Z,0
2018-03-22T03:37:38.829Z,0
2018-03-22T03:38:19.388Z,0
2018-03-22T03:39:00.095Z,0
2018-03-22T03:39:40.782Z,0
2018-03-22T03:40:21.345Z,0
2018-03-22T03:41:01.907Z,0
2018-03-22T03:41:42.448Z,0
2018-03-22T03:42:23.224Z,0
2018-03-22T03:43:03.836Z,0
2018-03-22T03:43:44.410Z,0
2018-03-22T03:44:24.967Z,0
2018-03-22T03:45:05.518Z,0
2018-03-22T03:45:46.075Z,0
2018-03-22T03:46:26.657Z,0
2018-03-22T03:47:07.215Z,0
2018-03-22T03:47:47.782Z,0
2018-03-22T03:48:28.349Z,0
2018-03-22T03:49:08.909Z,0
2018-03-22T03:49:49.467Z,0
2018-03-22T03:50:30.032Z,0
2018-03-22T03:51:10.582Z,0
2018-03-22T03:51:51.135Z,0
2018-03-22T03:52:31.693Z,0
2018-03-22T03:53:12.248Z,0
2018-03-22T03:53:52.813Z,0
2018-03-22T03:54:33.379Z,0
2018-03-22T03:55:13.932Z,0
2018-03-22T03:55:54.478Z,0
2018-03-22T03:56:35.046Z,0
2018-03-22T03:57:15.608Z,0
2018-03-22T03:57:56.160Z,0
2018-03-22T03:58:36.706Z,0
2018-03-22T03:59:17.288Z,0
2018-03-22T03:59:57.861Z,0
2018-03-22T04:00:38.434Z,0
2018-03-22T04:01:18.971Z,0
2018-03-22T04:01:59.553Z,0
2018-03-22T04:02:40.110Z,0
2018-03-22T04:03:20.671Z,0
2018-03-22T04:04:01.227Z,0
2018-03-22T04:04:41.778Z,0
2018-03-22T04:05:22.335Z,0
2018-03-22T04:06:02.889Z,0
2018-03-22T04:06:43.453Z,0
2018-03-22T04:07:24.012Z,0
2018-03-22T04:08:04.576Z,0
2018-03-22T04:08:45.142Z,0
2018-03-22T04:09:25.711Z,0
2018-03-22T04:10:06.265Z,0
2018-03-22T04:10:46.821Z,0
2018-03-22T04:11:27.381Z,0
2018-03-22T04:12:07.942Z,0
2018-03-22T04:12:48.487Z,0
2018-03-22T04:13:29.077Z,0
2018-03-22T04:14:09.651Z,0
2018-03-22T04:14:50.196Z,0
2018-03-22T04:15:30.754Z,0
2018-03-22T04:16:11.319Z,0
2018-03-22T04:16:51.867Z,0
2018-03-22T04:17:32.433Z,0
2018-03-22T04:18:12.995Z,0
2018-03-22T04:18:53.559Z,0
2018-03-22T04:19:34.117Z,0
2018-03-22T04:20:14.678Z,0
2018-03-22T04:20:55.254Z,0
2018-03-22T04:21:35.814Z,0
2018-03-22T04:22:16.384Z,0
2018-03-22T04:22:56.935Z,0
2018-03-22T04:23:37.503Z,0
2018-03-22T04:24:18.059Z,0
2018-03-22T04:24:58.614Z,0
2018-03-22T04:25:39.172Z,0
2018-03-22T04:26:19.724Z,0
2018-03-22T04:27:00.270Z,0
2018-03-22T04:27:40.838Z,0
2018-03-22T04:28:21.401Z,0
2018-03-22T04:29:01.963Z,0
2018-03-22T04:29:42.526Z,0
2018-03-22T04:30:23.096Z,0
2018-03-22T04:31:03.648Z,0
2018-03-22T04:31:44.196Z,0
2018-03-22T04:32:24.758Z,0
2018-03-22T04:33:05.311Z,0
2018-03-22T04:33:45.873Z,0
2018-03-22T04:34:26.435Z,0
2018-03-22T04:35:06.993Z,0
2018-03-22T04:35:47.599Z,0
2018-03-22T04:36:28.125Z,0
2018-03-22T04:37:08.683Z,0
2018-03-22T04:37:49.263Z,0
2018-03-22T04:38:29.820Z,0
2018-03-22T04:39:10.379Z,0
2018-03-22T04:39:50.939Z,0
2018-03-22T04:40:31.502Z,0
2018-03-22T04:41:12.096Z,0
2018-03-22T04:41:52.600Z,0
2018-03-22T04:42:33.216Z,0
2018-03-22T04:43:13.768Z,0
2018-03-22T04:43:54.336Z,0
2018-03-22T04:44:34.888Z,0
2018-03-22T04:45:15.441Z,0
2018-03-22T04:45:56.002Z,0
2018-03-22T04:46:36.566Z,0
2018-03-22T04:47:17.129Z,0
2018-03-22T04:47:57.697Z,0
2018-03-22T04:48:38.255Z,0
2018-03-22T04:49:18.820Z,0
2018-03-22T04:49:59.380Z,0
2018-03-22T04:50:39.939Z,0
2018-03-22T04:51:20.491Z,0
2018-03-22T04:52:01.047Z,0
2018-03-22T04:52:41.610Z,0
2018-03-22T04:53:22.167Z,0
2018-03-22T04:54:02.730Z,0
2018-03-22T04:54:43.284Z,0
2018-03-22T04:55:23.837Z,0
2018-03-22T04:56:04.407Z,0
2018-03-22T04:56:44.983Z,0
2018-03-22T04:57:25.542Z,0
2018-03-22T04:58:06.100Z,0
2018-03-22T04:58:46.646Z,0
2018-03-22T04:59:27.206Z,0
2018-03-22T05:00:07.755Z,0
2018-03-22T05:00:48.319Z,0
2018-03-22T05:01:28.845Z,0
2018-03-22T05:02:09.402Z,0
2018-03-22T05:02:49.980Z,0
2018-03-22T05:03:30.632Z,0
2018-03-22T05:04:11.181Z,0
2018-03-22T05:04:51.737Z,0
2018-03-22T05:05:32.282Z,0
2018-03-22T05:06:12.836Z,0
2018-03-22T05:06:53.408Z,0
2018-03-22T05:07:33.961Z,0
2018-03-22T05:08:14.524Z,0
2018-03-22T05:08:55.087Z,0
2018-03-22T05:09:35.651Z,0
2018-03-22T05:10:16.209Z,0
2018-03-22T05:10:56.780Z,0
2018-03-22T05:11:37.320Z,0
2018-03-22T05:12:17.870Z,0
2018-03-22T05:12:58.451Z,0
2018-03-22T05:13:39.023Z,0
2018-03-22T05:14:19.563Z,0
2018-03-22T05:15:00.119Z,0
2018-03-22T05:15:40.687Z,0
2018-03-22T05:16:21.244Z,0
2018-03-22T05:17:01.808Z,0
2018-03-22T05:17:42.376Z,0
2018-03-22T05:18:22.939Z,0
2018-03-22T05:19:03.498Z,0
2018-03-22T05:19:44.051Z,0
2018-03-22T05:20:24.605Z,0
2018-03-22T05:21:05.143Z,0
2018-03-22T05:21:45.729Z,0
2018-03-22T05:22:26.298Z,0
2018-03-22T05:23:06.965Z,0
2018-03-22T05:23:47.524Z,0
2018-03-22T05:24:28.087Z,0
2018-03-22T05:25:08.652Z,0
2018-03-22T05:25:49.214Z,0
2018-03-22T05:26:29.764Z,0
2018-03-22T05:27:10.336Z,0
2018-03-22T05:27:50.881Z,0
2018-03-22T05:28:31.450Z,0
2018-03-22T05:29:12.013Z,0
2018-03-22T05:29:52.567Z,0
2018-03-22T05:30:33.129Z,0
2018-03-22T05:31:13.694Z,0
2018-03-22T05:31:54.235Z,0
2018-03-22T05:32:34.787Z,0
2018-03-22T05:33:15.343Z,0
2018-03-22T05:33:55.899Z,0
2018-03-22T05:34:36.457Z,0
2018-03-22T05:35:17.018Z,0
2018-03-22T05:35:57.580Z,5
2018-03-22T05:36:38.404Z,5
2018-03-22T05:37:18.749Z,5
2018-03-22T05:37:59.337Z,5
2018-03-22T05:38:39.905Z,5
2018-03-22T05:39:20.670Z,5
2018-03-22T05:40:01.238Z,5
2018-03-22T05:40:41.804Z,5
2018-03-22T05:41:22.355Z,5
2018-03-22T05:42:02.912Z,5
2018-03-22T05:42:43.479Z,5
2018-03-22T05:43:24.031Z,5
2018-03-22T05:44:04.583Z,5
2018-03-22T05:44:45.144Z,5
2018-03-22T05:45:25.828Z,5
2018-03-22T05:46:06.393Z,5
2018-03-22T05:46:46.974Z,5
2018-03-22T05:47:27.531Z,5
2018-03-22T05:48:08.070Z,5
2018-03-22T05:48:48.626Z,5
2018-03-22T05:49:29.175Z,5
2018-03-22T05:50:09.761Z,5
2018-03-22T05:50:50.312Z,5
2018-03-22T05:51:30.869Z,5
2018-03-22T05:52:11.427Z,5
2018-03-22T05:52:51.987Z,5
2018-03-22T05:53:32.557Z,5
2018-03-22T05:54:13.117Z,5
2018-03-22T05:54:53.672Z,5
2018-03-22T05:55:34.228Z,5
2018-03-22T05:56:14.790Z,5
2018-03-22T05:56:55.329Z,5
2018-03-22T05:57:35.892Z,5
2018-03-22T05:58:17.134Z,5
2018-03-22T05:58:57.706Z,5
2018-03-22T05:59:38.261Z,5
2018-03-22T06:00:18.817Z,5
2018-03-22T06:00:59.407Z,5
2018-03-22T06:01:39.981Z,5
2018-03-22T06:02:20.539Z,5
2018-03-22T06:03:01.092Z,5
2018-03-22T06:03:41.638Z,5
2018-03-22T06:04:22.203Z,5
2018-03-22T06:05:02.749Z,5
2018-03-22T06:05:43.316Z,5
2018-03-22T06:06:23.900Z,5
2018-03-22T06:07:04.460Z,5
2018-03-22T06:07:45.024Z,5
2018-03-22T06:08:25.572Z,5
2018-03-22T06:09:06.152Z,5
2018-03-22T06:09:46.718Z,5
2018-03-22T06:10:27.274Z,10
2018-03-22T06:11:07.821Z,10
2018-03-22T06:11:48.380Z,10
2018-03-22T06:12:28.950Z,10
2018-03-22T06:13:09.547Z,10
2018-03-22T06:13:50.070Z,10
2018-03-22T06:14:30.638Z,10
2018-03-22T06:15:11.325Z,15
2018-03-22T06:15:51.800Z,15
2018-03-22T06:16:32.354Z,15
2018-03-22T06:17:12.911Z,15
2018-03-22T06:17:53.457Z,15
2018-03-22T06:18:34.021Z,15
2018-03-22T06:19:14.570Z,20
2018-03-22T06:19:55.126Z,20
2018-03-22T06:20:35.685Z,20
2018-03-22T06:21:16.239Z,20
2018-03-22T06:21:56.812Z,20
2018-03-22T06:22:37.396Z,20
2018-03-22T06:23:17.988Z,20
2018-03-22T06:23:58.549Z,20
2018-03-22T06:24:39.118Z,20
2018-03-22T06:25:19.724Z,20
2018-03-22T06:26:00.271Z,20
2018-03-22T06:26:40.849Z,20
2018-03-22T06:27:21.414Z,20
2018-03-22T06:28:01.973Z,20
2018-03-22T06:28:42.532Z,20
2018-03-22T06:29:23.083Z,25
2018-03-22T06:30:03.650Z,25
2018-03-22T06:30:44.209Z,25
2018-03-22T06:31:24.765Z,25
2018-03-22T06:32:05.319Z,25
2018-03-22T06:32:45.941Z,25
2018-03-22T06:33:26.438Z,30
2018-03-22T06:34:06.987Z,30
2018-03-22T06:34:47.526Z,30
2018-03-22T06:35:28.093Z,30
2018-03-22T06:36:08.651Z,30
2018-03-22T06:36:49.240Z,25
2018-03-22T06:37:30.141Z,25
2018-03-22T06:38:10.797Z,25
2018-03-22T06:38:51.343Z,25
2018-03-22T06:39:31.928Z,25
2018-03-22T06:40:12.521Z,20
2018-03-22T06:40:53.100Z,20
2018-03-22T06:41:33.682Z,20
2018-03-22T06:42:14.254Z,20
2018-03-22T06:42:54.873Z,20
2018-03-22T06:43:35.421Z,20
2018-03-22T06:44:15.988Z,15
2018-03-22T06:44:56.552Z,15
2018-03-22T06:45:37.128Z,15
2018-03-22T06:46:17.674Z,15
2018-03-22T06:46:58.234Z,15
2018-03-22T06:47:38.778Z,15
2018-03-22T06:48:19.333Z,15
2018-03-22T06:48:59.958Z,15
2018-03-22T06:49:40.518Z,15
2018-03-22T06:50:21.083Z,15
2018-03-22T06:51:01.655Z,10
2018-03-22T06:51:42.202Z,10
2018-03-22T06:52:22.749Z,10
2018-03-22T06:53:03.292Z,10
2018-03-22T06:53:43.970Z,10
2018-03-22T06:54:24.537Z,10
2018-03-22T06:55:05.701Z,10
2018-03-22T06:55:46.260Z,10
2018-03-22T06:56:26.840Z,10
2018-03-22T06:57:07.389Z,10
2018-03-22T06:57:47.947Z,10
2018-03-22T06:58:28.863Z,10
2018-03-22T06:59:09.417Z,10
2018-03-22T06:59:49.983Z,10
2018-03-22T07:00:30.550Z,15
2018-03-22T07:01:12.511Z,15
2018-03-22T07:01:53.108Z,15
2018-03-22T07:02:33.693Z,15
2018-03-22T07:03:14.347Z,15
2018-03-22T07:03:54.997Z,20
2018-03-22T07:04:35.505Z,20
2018-03-22T07:05:16.056Z,20
2018-03-22T07:05:56.615Z,20
2018-03-22T07:06:37.158Z,20
2018-03-22T07:07:19.078Z,20
2018-03-22T07:07:59.651Z,20
2018-03-22T07:08:40.222Z,20
2018-03-22T07:09:20.778Z,25
2018-03-22T07:10:01.355Z,25
2018-03-22T07:10:42.359Z,25
2018-03-22T07:11:22.638Z,25
2018-03-22T07:12:03.356Z,25
2018-03-22T07:12:43.802Z,25
2018-03-22T07:13:24.342Z,25
2018-03-22T07:14:04.901Z,25
2018-03-22T07:14:45.459Z,25
2018-03-22T07:15:26.017Z,25
2018-03-22T07:16:06.583Z,25
2018-03-22T07:16:47.146Z,25
2018-03-22T07:17:27.708Z,25
2018-03-22T07:18:08.280Z,20
2018-03-22T07:18:48.842Z,20
2018-03-22T07:19:29.402Z,20
2018-03-22T07:20:10.797Z,20
2018-03-22T07:20:51.391Z,20
2018-03-22T07:21:31.941Z,20
2018-03-22T07:22:12.515Z,20
2018-03-22T07:22:53.062Z,20
2018-03-22T07:23:33.611Z,20
2018-03-22T07:24:14.163Z,20
2018-03-22T07:24:54.705Z,20
2018-03-22T07:25:35.258Z,20
2018-03-22T07:26:15.803Z,20
2018-03-22T07:26:56.355Z,20
2018-03-22T07:27:38.175Z,20
2018-03-22T07:28:18.754Z,20
2018-03-22T07:28:59.728Z,20
2018-03-22T07:29:40.377Z,20
2018-03-22T07:30:21.217Z,20
2018-03-22T07:31:01.791Z,20
2018-03-22T07:31:42.398Z,20
2018-03-22T07:32:23.068Z,20
2018-03-22T07:33:03.625Z,20
2018-03-22T07:33:44.185Z,20
2018-03-22T07:34:24.910Z,20
2018-03-22T07:35:05.440Z,20
2018-03-22T07:35:46.351Z,25
2018-03-22T07:36:26.915Z,25
2018-03-22T07:37:07.479Z,25
2018-03-22T07:37:49.900Z,25
2018-03-22T07:38:28.671Z,25
2018-03-22T07:39:09.505Z,25
2018-03-22T07:39:50.063Z,25
2018-03-22T07:40:30.719Z,25
2018-03-22T07:41:11.398Z,25
2018-03-22T07:41:51.901Z,25
2018-03-22T07:42:33.233Z,20
2018-03-22T07:43:13.791Z,20
2018-03-22T07:43:54.408Z,20
2018-03-22T07:44:35.019Z,20
2018-03-22T07:45:15.567Z,20
2018-03-22T07:45:56.118Z,20
2018-03-22T07:46:36.720Z,15
2018-03-22T07:47:17.279Z,15
2018-03-22T07:47:57.819Z,15
2018-03-22T07:48:38.375Z,15
2018-03-22T07:49:18.927Z,15
2018-03-22T07:49:59.508Z,15
2018-03-22T07:50:40.070Z,15
2018-03-22T07:51:20.643Z,20
2018-03-22T07:52:01.225Z,20
2018-03-22T07:52:41.792Z,20
2018-03-22T07:53:22.328Z,25
2018-03-22T07:54:03.420Z,25
2018-03-22T07:54:43.795Z,25
2018-03-22T07:55:24.448Z,30
2018-03-22T07:56:04.988Z,30
2018-03-22T07:56:45.597Z,30
2018-03-22T07:57:26.166Z,30
2018-03-22T07:58:06.717Z,30
2018-03-22T07:58:47.253Z,30
2018-03-22T07:59:27.923Z,30
2018-03-22T08:00:08.486Z,30
2018-03-22T08:00:49.095Z,30
2018-03-22T08:01:30.238Z,30
2018-03-22T08:02:10.797Z,30
2018-03-22T08:02:51.347Z,25
2018-03-22T08:03:31.906Z,25
2018-03-22T08:04:12.506Z,30
2018-03-22T08:04:53.064Z,30
2018-03-22T08:05:33.621Z,35
2018-03-22T08:06:14.173Z,35
2018-03-22T08:06:54.727Z,40
2018-03-22T08:07:35.265Z,45
2018-03-22T08:08:15.847Z,45
2018-03-22T08:08:56.385Z,50
2018-03-22T08:09:36.933Z,55
2018-03-22T08:10:17.548Z,55
2018-03-22T08:10:58.081Z,50
2018-03-22T08:11:38.634Z,50
2018-03-22T08:12:19.237Z,45
2018-03-22T08:12:59.804Z,45
2018-03-22T08:13:40.356Z,50
2018-03-22T08:14:20.938Z,45
2018-03-22T08:15:01.456Z,40
2018-03-22T08:15:42.181Z,35
2018-03-22T08:16:22.731Z,35
2018-03-22T08:17:03.289Z,35
2018-03-22T08:17:44.025Z,30
2018-03-22T08:18:24.576Z,35
2018-03-22T08:19:05.107Z,35
2018-03-22T08:19:45.754Z,30
2018-03-22T08:20:26.327Z,35
2018-03-22T08:21:06.888Z,35
2018-03-22T08:21:47.459Z,30
2018-03-22T08:22:28.166Z,30
2018-03-22T08:23:08.758Z,30
2018-03-22T08:23:49.314Z,30
2018-03-22T08:24:29.867Z,35
2018-03-22T08:25:10.407Z,35
2018-03-22T08:25:50.971Z,35
2018-03-22T08:26:31.531Z,40
2018-03-22T08:27:12.078Z,40
2018-03-22T08:27:52.641Z,45
2018-03-22T08:28:33.193Z,50
2018-03-22T08:29:13.803Z,50
2018-03-22T08:29:54.421Z,50
2018-03-22T08:30:35.043Z,50
2018-03-22T08:31:15.556Z,50
2018-03-22T08:31:56.129Z,55
2018-03-22T08:32:36.712Z,50
2018-03-22T08:33:17.282Z,55
2018-03-22T08:33:57.834Z,55
2018-03-22T08:34:38.401Z,55
2018-03-22T08:35:18.955Z,60
2018-03-22T08:35:59.538Z,60
2018-03-22T08:36:40.102Z,60
2018-03-22T08:37:20.696Z,60
2018-03-22T08:38:01.204Z,55
2018-03-22T08:38:41.760Z,65
2018-03-22T08:39:22.309Z,65
2018-03-22T08:40:02.881Z,60
2018-03-22T08:40:43.434Z,60
2018-03-22T08:41:24.039Z,60
2018-03-22T08:42:04.566Z,70
2018-03-22T08:42:45.116Z,70
2018-03-22T08:43:25.674Z,65
2018-03-22T08:44:06.253Z,65
2018-03-22T08:44:46.804Z,65
2018-03-22T08:45:27.359Z,70
2018-03-22T08:46:07.927Z,75
2018-03-22T08:46:48.477Z,65
2018-03-22T08:47:29.025Z,65
2018-03-22T08:48:09.612Z,65
2018-03-22T08:48:50.190Z,65
2018-03-22T08:49:30.733Z,60
2018-03-22T08:50:11.294Z,60
2018-03-22T08:50:51.847Z,55
2018-03-22T08:51:32.399Z,55
2018-03-22T08:52:12.979Z,60
2018-03-22T08:52:53.545Z,55
2018-03-22T08:53:34.070Z,50
2018-03-22T08:54:14.650Z,55
2018-03-22T08:54:55.200Z,55
2018-03-22T08:55:35.788Z,50
2018-03-22T08:56:16.336Z,55
2018-03-22T08:56:56.895Z,65
2018-03-22T08:57:37.463Z,65
2018-03-22T08:58:18.038Z,65
2018-03-22T08:58:58.608Z,65
2018-03-22T08:59:39.168Z,65
2018-03-22T09:00:19.717Z,65
2018-03-22T09:01:00.265Z,65
2018-03-22T09:01:40.816Z,60
2018-03-22T09:02:21.382Z,70
2018-03-22T09:03:01.936Z,70
2018-03-22T09:03:42.504Z,75
2018-03-22T09:04:23.060Z,70
2018-03-22T09:05:03.618Z,65
2018-03-22T09:05:44.166Z,65
2018-03-22T09:06:24.729Z,65
2018-03-22T09:07:05.289Z,65
2018-03-22T09:07:45.852Z,65
2018-03-22T09:08:26.415Z,65
2018-03-22T09:09:06.964Z,70
2018-03-22T09:09:47.562Z,70
2018-03-22T09:10:28.084Z,70
2018-03-22T09:11:08.662Z,65
2018-03-22T09:11:49.228Z,65
2018-03-22T09:12:29.786Z,65
2018-03-22T09:13:10.350Z,60
2018-03-22T09:13:50.893Z,60
2018-03-22T09:14:31.448Z,65
2018-03-22T09:15:12.002Z,65
2018-03-22T09:15:52.602Z,70
2018-03-22T09:16:33.173Z,65
2018-03-22T09:17:13.750Z,70
2018-03-22T09:17:54.297Z,70
2018-03-22T09:18:34.851Z,75
2018-03-22T09:19:15.399Z,70
2018-03-22T09:19:55.957Z,70
2018-03-22T09:20:36.510Z,65
2018-03-22T09:21:17.058Z,65
2018-03-22T09:21:57.609Z,65
2018-03-22T09:22:38.156Z,65
2018-03-22T09:23:18.712Z,60
2018-03-22T09:23:59.265Z,60
2018-03-22T09:24:39.824Z,60
2018-03-22T09:25:20.373Z,55
2018-03-22T09:26:01.068Z,55
2018-03-22T09:26:41.626Z,50
2018-03-22T09:27:22.191Z,50
2018-03-22T09:28:02.742Z,45
2018-03-22T09:28:43.299Z,45
2018-03-22T09:29:23.850Z,45
2018-03-22T09:30:04.460Z,45
2018-03-22T09:30:45.039Z,45
2018-03-22T09:31:25.598Z,40
2018-03-22T09:32:06.151Z,45
2018-03-22T09:32:46.753Z,45
2018-03-22T09:33:27.309Z,45
2018-03-22T09:34:07.855Z,45
2018-03-22T09:34:48.487Z,45
2018-03-22T09:35:28.998Z,45
2018-03-22T09:36:09.558Z,45
2018-03-22T09:36:50.121Z,45
2018-03-22T09:37:30.694Z,50
2018-03-22T09:38:11.319Z,45
2018-03-22T09:38:51.806Z,45
2018-03-22T09:39:32.405Z,45
2018-03-22T09:40:12.954Z,40
2018-03-22T09:40:53.536Z,40
2018-03-22T09:41:34.083Z,40
2018-03-22T09:42:14.707Z,40
2018-03-22T09:42:55.472Z,40
2018-03-22T09:43:36.025Z,40
2018-03-22T09:44:16.624Z,45
2018-03-22T09:44:57.211Z,50
2018-03-22T09:45:37.902Z,45
2018-03-22T09:46:18.471Z,45
2018-03-22T09:46:59.099Z,45
2018-03-22T09:47:39.648Z,45
2018-03-22T09:48:20.237Z,45
2018-03-22T09:49:00.778Z,45
2018-03-22T09:49:41.348Z,50
2018-03-22T09:50:22.171Z,50
2018-03-22T09:51:02.727Z,50
2018-03-22T09:51:43.257Z,50
2018-03-22T09:52:23.971Z,55